sensor_id;sensor_type;location;lat;lon;timestamp;temperature;humidity
67050;DHT22;53955;52.442;13.284;2022-11-15T00:00:54;9.30;78.00
67050;DHT22;53955;52.442;13.284;2022-11-15T00:03:23;9.30;77.80
67050;DHT22;53955;52.442;13.284;2022-11-15T00:05:51;9.30;77.80
67050;DHT22;53955;52.442;13.284;2022-11-15T00:08:18;9.30;77.90
67050;DHT22;53955;52.442;13.284;2022-11-15T00:10:54;9.40;78.00
67050;DHT22;53955;52.442;13.284;2022-11-15T00:13:20;9.30;77.70
67050;DHT22;53955;52.442;13.284;2022-11-15T00:15:47;9.40;77.80
67050;DHT22;53955;52.442;13.284;2022-11-15T00:18:14;9.50;77.00
67050;DHT22;53955;52.442;13.284;2022-11-15T00:20:41;9.50;77.30
67050;DHT22;53955;52.442;13.284;2022-11-15T00:23:09;9.40;77.30
67050;DHT22;53955;52.442;13.284;2022-11-15T00:25:36;9.40;77.70
67050;DHT22;53955;52.442;13.284;2022-11-15T00:28:03;9.30;77.50
67050;DHT22;53955;52.442;13.284;2022-11-15T00:30:30;9.30;77.70
67050;DHT22;53955;52.442;13.284;2022-11-15T00:32:56;9.40;77.60
67050;DHT22;53955;52.442;13.284;2022-11-15T00:35:27;9.30;77.90
67050;DHT22;53955;52.442;13.284;2022-11-15T00:37:53;9.40;77.70
67050;DHT22;53955;52.442;13.284;2022-11-15T00:40:22;9.30;77.60
67050;DHT22;53955;52.442;13.284;2022-11-15T00:42:50;9.30;77.70
67050;DHT22;53955;52.442;13.284;2022-11-15T00:45:17;9.40;77.40
67050;DHT22;53955;52.442;13.284;2022-11-15T00:47:45;9.40;77.50
67050;DHT22;53955;52.442;13.284;2022-11-15T00:50:12;9.40;77.40
67050;DHT22;53955;52.442;13.284;2022-11-15T00:52:39;9.30;77.40
67050;DHT22;53955;52.442;13.284;2022-11-15T00:55:05;9.30;77.70
67050;DHT22;53955;52.442;13.284;2022-11-15T00:57:33;9.30;77.60
67050;DHT22;53955;52.442;13.284;2022-11-15T01:00:00;9.50;77.10
67050;DHT22;53955;52.442;13.284;2022-11-15T01:02:26;9.50;77.20
67050;DHT22;53955;52.442;13.284;2022-11-15T01:04:53;9.40;76.90
67050;DHT22;53955;52.442;13.284;2022-11-15T01:07:20;9.40;77.40
67050;DHT22;53955;52.442;13.284;2022-11-15T01:09:46;9.50;77.00
67050;DHT22;53955;52.442;13.284;2022-11-15T01:12:13;9.40;77.40
67050;DHT22;53955;52.442;13.284;2022-11-15T01:14:41;9.50;77.20
67050;DHT22;53955;52.442;13.284;2022-11-15T01:17:07;9.50;76.90
67050;DHT22;53955;52.442;13.284;2022-11-15T01:19:34;9.60;76.70
67050;DHT22;53955;52.442;13.284;2022-11-15T01:22:00;9.60;76.30
67050;DHT22;53955;52.442;13.284;2022-11-15T01:24:27;9.50;77.10
67050;DHT22;53955;52.442;13.284;2022-11-15T01:26:53;9.40;77.40
67050;DHT22;53955;52.442;13.284;2022-11-15T01:29:20;9.40;77.40
67050;DHT22;53955;52.442;13.284;2022-11-15T01:31:48;9.30;77.70
67050;DHT22;53955;52.442;13.284;2022-11-15T01:34:15;9.30;77.50
67050;DHT22;53955;52.442;13.284;2022-11-15T01:36:41;9.30;77.50
67050;DHT22;53955;52.442;13.284;2022-11-15T01:39:08;9.40;77.40
67050;DHT22;53955;52.442;13.284;2022-11-15T01:41:34;9.30;77.70
67050;DHT22;53955;52.442;13.284;2022-11-15T01:44:36;9.40;77.50
67050;DHT22;53955;52.442;13.284;2022-11-15T01:47:09;9.30;77.50
67050;DHT22;53955;52.442;13.284;2022-11-15T01:49:38;9.40;77.40
67050;DHT22;53955;52.442;13.284;2022-11-15T01:52:09;9.20;77.60
67050;DHT22;53955;52.442;13.284;2022-11-15T01:54:36;9.30;77.70
67050;DHT22;53955;52.442;13.284;2022-11-15T01:57:06;9.30;77.80
67050;DHT22;53955;52.442;13.284;2022-11-15T01:59:33;9.30;77.40
67050;DHT22;53955;52.442;13.284;2022-11-15T02:02:00;9.30;77.40
67050;DHT22;53955;52.442;13.284;2022-11-15T02:04:32;9.30;77.40
67050;DHT22;53955;52.442;13.284;2022-11-15T02:07:02;9.30;77.00
67050;DHT22;53955;52.442;13.284;2022-11-15T02:09:29;9.30;77.70
67050;DHT22;53955;52.442;13.284;2022-11-15T02:11:56;9.20;77.50
67050;DHT22;53955;52.442;13.284;2022-11-15T02:14:23;9.20;77.80
67050;DHT22;53955;52.442;13.284;2022-11-15T02:16:58;9.20;77.40
67050;DHT22;53955;52.442;13.284;2022-11-15T02:20:02;9.20;77.60
67050;DHT22;53955;52.442;13.284;2022-11-15T02:22:42;9.20;77.40
67050;DHT22;53955;52.442;13.284;2022-11-15T02:25:29;9.20;78.00
67050;DHT22;53955;52.442;13.284;2022-11-15T02:28:16;9.10;77.80
67050;DHT22;53955;52.442;13.284;2022-11-15T02:30:53;9.00;78.20
67050;DHT22;53955;52.442;13.284;2022-11-15T02:33:28;9.00;77.90
67050;DHT22;53955;52.442;13.284;2022-11-15T02:36:01;8.90;77.90
67050;DHT22;53955;52.442;13.284;2022-11-15T02:38:32;9.00;77.70
67050;DHT22;53955;52.442;13.284;2022-11-15T02:41:08;8.90;78.20
67050;DHT22;53955;52.442;13.284;2022-11-15T02:43:40;8.90;78.10
67050;DHT22;53955;52.442;13.284;2022-11-15T02:46:28;8.90;78.20
67050;DHT22;53955;52.442;13.284;2022-11-15T02:49:16;8.80;78.30
67050;DHT22;53955;52.442;13.284;2022-11-15T02:51:45;8.90;78.20
67050;DHT22;53955;52.442;13.284;2022-11-15T02:54:17;9.00;77.70
67050;DHT22;53955;52.442;13.284;2022-11-15T02:56:45;9.10;77.80
67050;DHT22;53955;52.442;13.284;2022-11-15T02:59:33;9.20;76.90
67050;DHT22;53955;52.442;13.284;2022-11-15T03:02:18;9.00;77.30
67050;DHT22;53955;52.442;13.284;2022-11-15T03:04:53;9.00;76.50
67050;DHT22;53955;52.442;13.284;2022-11-15T03:07:25;9.00;77.10
67050;DHT22;53955;52.442;13.284;2022-11-15T03:09:57;9.00;77.50
67050;DHT22;53955;52.442;13.284;2022-11-15T03:12:40;8.90;77.50
67050;DHT22;53955;52.442;13.284;2022-11-15T03:15:11;8.90;77.50
67050;DHT22;53955;52.442;13.284;2022-11-15T03:17:48;8.90;77.70
67050;DHT22;53955;52.442;13.284;2022-11-15T03:20:19;8.80;77.40
67050;DHT22;53955;52.442;13.284;2022-11-15T03:22:47;8.80;77.70
67050;DHT22;53955;52.442;13.284;2022-11-15T03:25:17;9.00;77.40
67050;DHT22;53955;52.442;13.284;2022-11-15T03:27:49;8.90;77.50
67050;DHT22;53955;52.442;13.284;2022-11-15T03:30:17;8.90;77.50
67050;DHT22;53955;52.442;13.284;2022-11-15T03:32:51;9.00;77.00
67050;DHT22;53955;52.442;13.284;2022-11-15T03:35:21;9.00;77.20
67050;DHT22;53955;52.442;13.284;2022-11-15T03:37:52;9.00;76.90
67050;DHT22;53955;52.442;13.284;2022-11-15T03:40:24;8.90;76.90
67050;DHT22;53955;52.442;13.284;2022-11-15T03:42:59;8.90;77.60
67050;DHT22;53955;52.442;13.284;2022-11-15T03:45:31;8.80;77.20
67050;DHT22;53955;52.442;13.284;2022-11-15T03:48:02;8.80;77.60
67050;DHT22;53955;52.442;13.284;2022-11-15T03:50:31;8.70;77.90
67050;DHT22;53955;52.442;13.284;2022-11-15T03:52:58;8.60;77.70
67050;DHT22;53955;52.442;13.284;2022-11-15T03:55:25;8.60;78.00
67050;DHT22;53955;52.442;13.284;2022-11-15T03:57:54;8.80;77.90
67050;DHT22;53955;52.442;13.284;2022-11-15T04:00:22;8.70;77.70
67050;DHT22;53955;52.442;13.284;2022-11-15T04:02:49;8.70;77.60
67050;DHT22;53955;52.442;13.284;2022-11-15T04:05:17;8.70;77.80
67050;DHT22;53955;52.442;13.284;2022-11-15T04:07:44;8.80;77.90
67050;DHT22;53955;52.442;13.284;2022-11-15T04:10:11;8.80;78.00
67050;DHT22;53955;52.442;13.284;2022-11-15T04:12:40;8.90;77.70
67050;DHT22;53955;52.442;13.284;2022-11-15T04:15:10;8.80;77.10
67050;DHT22;53955;52.442;13.284;2022-11-15T04:17:39;8.70;77.20
67050;DHT22;53955;52.442;13.284;2022-11-15T04:20:09;8.60;78.20
67050;DHT22;53955;52.442;13.284;2022-11-15T04:22:57;8.60;77.80
67050;DHT22;53955;52.442;13.284;2022-11-15T04:25:41;8.60;77.80
67050;DHT22;53955;52.442;13.284;2022-11-15T04:28:08;8.70;77.80
67050;DHT22;53955;52.442;13.284;2022-11-15T04:30:35;8.60;78.40
67050;DHT22;53955;52.442;13.284;2022-11-15T04:33:02;8.70;78.30
67050;DHT22;53955;52.442;13.284;2022-11-15T04:35:30;8.60;78.40
67050;DHT22;53955;52.442;13.284;2022-11-15T04:37:58;8.60;78.30
67050;DHT22;53955;52.442;13.284;2022-11-15T04:40:24;8.60;78.60
67050;DHT22;53955;52.442;13.284;2022-11-15T04:42:51;8.80;78.30
67050;DHT22;53955;52.442;13.284;2022-11-15T04:45:17;9.00;77.90
67050;DHT22;53955;52.442;13.284;2022-11-15T04:47:44;9.10;77.20
67050;DHT22;53955;52.442;13.284;2022-11-15T04:50:11;9.10;76.30
67050;DHT22;53955;52.442;13.284;2022-11-15T04:52:38;8.90;76.40
67050;DHT22;53955;52.442;13.284;2022-11-15T04:55:07;8.70;76.40
67050;DHT22;53955;52.442;13.284;2022-11-15T04:57:34;8.80;77.50
67050;DHT22;53955;52.442;13.284;2022-11-15T05:00:10;8.70;78.00
67050;DHT22;53955;52.442;13.284;2022-11-15T05:02:37;8.70;77.70
67050;DHT22;53955;52.442;13.284;2022-11-15T05:05:21;8.50;77.80
67050;DHT22;53955;52.442;13.284;2022-11-15T05:07:48;8.60;78.30
67050;DHT22;53955;52.442;13.284;2022-11-15T05:10:16;8.60;78.00
67050;DHT22;53955;52.442;13.284;2022-11-15T05:12:42;8.50;78.00
67050;DHT22;53955;52.442;13.284;2022-11-15T05:15:09;8.60;77.50
67050;DHT22;53955;52.442;13.284;2022-11-15T05:17:36;8.60;77.90
67050;DHT22;53955;52.442;13.284;2022-11-15T05:20:03;8.70;78.00
67050;DHT22;53955;52.442;13.284;2022-11-15T05:22:30;8.70;77.90
67050;DHT22;53955;52.442;13.284;2022-11-15T05:24:57;8.60;77.70
67050;DHT22;53955;52.442;13.284;2022-11-15T05:27:25;8.60;78.00
67050;DHT22;53955;52.442;13.284;2022-11-15T05:29:52;8.60;77.80
67050;DHT22;53955;52.442;13.284;2022-11-15T05:32:19;8.60;78.10
67050;DHT22;53955;52.442;13.284;2022-11-15T05:34:46;8.60;77.80
67050;DHT22;53955;52.442;13.284;2022-11-15T05:37:13;8.50;77.90
67050;DHT22;53955;52.442;13.284;2022-11-15T05:39:40;8.50;78.10
67050;DHT22;53955;52.442;13.284;2022-11-15T05:42:10;8.40;78.00
67050;DHT22;53955;52.442;13.284;2022-11-15T05:44:41;8.40;78.40
67050;DHT22;53955;52.442;13.284;2022-11-15T05:47:10;8.40;78.50
67050;DHT22;53955;52.442;13.284;2022-11-15T05:49:39;8.60;78.40
67050;DHT22;53955;52.442;13.284;2022-11-15T05:52:09;8.70;78.40
67050;DHT22;53955;52.442;13.284;2022-11-15T05:54:38;8.50;78.10
67050;DHT22;53955;52.442;13.284;2022-11-15T05:57:05;8.60;78.20
67050;DHT22;53955;52.442;13.284;2022-11-15T05:59:33;8.70;77.80
67050;DHT22;53955;52.442;13.284;2022-11-15T06:02:03;8.70;78.10
67050;DHT22;53955;52.442;13.284;2022-11-15T06:04:30;8.70;77.70
67050;DHT22;53955;52.442;13.284;2022-11-15T06:06:59;8.70;77.70
67050;DHT22;53955;52.442;13.284;2022-11-15T06:09:25;8.70;78.00
67050;DHT22;53955;52.442;13.284;2022-11-15T06:11:52;8.60;77.70
67050;DHT22;53955;52.442;13.284;2022-11-15T06:14:19;8.60;78.10
67050;DHT22;53955;52.442;13.284;2022-11-15T06:16:45;8.70;78.50
67050;DHT22;53955;52.442;13.284;2022-11-15T06:19:13;8.60;78.10
67050;DHT22;53955;52.442;13.284;2022-11-15T06:21:41;8.80;77.80
67050;DHT22;53955;52.442;13.284;2022-11-15T06:24:08;8.70;77.70
67050;DHT22;53955;52.442;13.284;2022-11-15T06:26:34;8.80;77.70
67050;DHT22;53955;52.442;13.284;2022-11-15T06:29:02;8.70;77.80
67050;DHT22;53955;52.442;13.284;2022-11-15T06:31:29;8.80;77.40
67050;DHT22;53955;52.442;13.284;2022-11-15T06:33:56;8.90;77.00
67050;DHT22;53955;52.442;13.284;2022-11-15T06:36:24;8.90;76.70
67050;DHT22;53955;52.442;13.284;2022-11-15T06:38:50;8.90;76.70
67050;DHT22;53955;52.442;13.284;2022-11-15T06:41:17;9.00;77.40
67050;DHT22;53955;52.442;13.284;2022-11-15T06:43:43;8.90;76.80
67050;DHT22;53955;52.442;13.284;2022-11-15T06:46:10;8.90;77.10
67050;DHT22;53955;52.442;13.284;2022-11-15T06:48:37;9.00;76.60
67050;DHT22;53955;52.442;13.284;2022-11-15T06:51:04;8.80;77.10
67050;DHT22;53955;52.442;13.284;2022-11-15T06:53:32;8.80;77.70
67050;DHT22;53955;52.442;13.284;2022-11-15T06:55:59;8.80;77.60
67050;DHT22;53955;52.442;13.284;2022-11-15T06:58:27;8.90;77.30
67050;DHT22;53955;52.442;13.284;2022-11-15T07:00:57;9.10;76.70
67050;DHT22;53955;52.442;13.284;2022-11-15T07:03:24;9.10;76.30
67050;DHT22;53955;52.442;13.284;2022-11-15T07:05:52;9.10;75.90
67050;DHT22;53955;52.442;13.284;2022-11-15T07:08:19;9.00;76.60
67050;DHT22;53955;52.442;13.284;2022-11-15T07:10:49;9.00;76.50
67050;DHT22;53955;52.442;13.284;2022-11-15T07:13:16;9.10;76.70
67050;DHT22;53955;52.442;13.284;2022-11-15T07:15:43;9.10;76.00
67050;DHT22;53955;52.442;13.284;2022-11-15T07:18:10;9.10;76.00
67050;DHT22;53955;52.442;13.284;2022-11-15T07:20:36;9.20;75.70
67050;DHT22;53955;52.442;13.284;2022-11-15T07:23:05;9.40;75.00
67050;DHT22;53955;52.442;13.284;2022-11-15T07:25:32;9.40;75.10
67050;DHT22;53955;52.442;13.284;2022-11-15T07:28:00;9.40;75.40
67050;DHT22;53955;52.442;13.284;2022-11-15T07:30:27;9.40;75.50
67050;DHT22;53955;52.442;13.284;2022-11-15T07:32:54;9.30;75.80
67050;DHT22;53955;52.442;13.284;2022-11-15T07:35:21;9.30;75.60
67050;DHT22;53955;52.442;13.284;2022-11-15T07:37:53;9.30;75.60
67050;DHT22;53955;52.442;13.284;2022-11-15T07:40:21;9.40;75.80
67050;DHT22;53955;52.442;13.284;2022-11-15T07:42:47;9.50;75.30
67050;DHT22;53955;52.442;13.284;2022-11-15T07:45:22;9.60;75.50
67050;DHT22;53955;52.442;13.284;2022-11-15T07:47:51;9.60;75.80
67050;DHT22;53955;52.442;13.284;2022-11-15T07:50:17;9.70;74.50
67050;DHT22;53955;52.442;13.284;2022-11-15T07:52:44;9.90;75.10
67050;DHT22;53955;52.442;13.284;2022-11-15T07:55:11;10.60;73.20
67050;DHT22;53955;52.442;13.284;2022-11-15T07:57:38;11.20;70.80
67050;DHT22;53955;52.442;13.284;2022-11-15T08:00:06;11.80;69.70
67050;DHT22;53955;52.442;13.284;2022-11-15T08:02:34;12.30;67.30
67050;DHT22;53955;52.442;13.284;2022-11-15T08:05:00;12.40;67.10
67050;DHT22;53955;52.442;13.284;2022-11-15T08:07:28;12.40;67.80
67050;DHT22;53955;52.442;13.284;2022-11-15T08:09:55;12.80;64.90
67050;DHT22;53955;52.442;13.284;2022-11-15T08:12:22;13.40;62.20
67050;DHT22;53955;52.442;13.284;2022-11-15T08:14:49;14.30;59.80
67050;DHT22;53955;52.442;13.284;2022-11-15T08:17:16;14.50;57.80
67050;DHT22;53955;52.442;13.284;2022-11-15T08:19:44;14.80;57.20
67050;DHT22;53955;52.442;13.284;2022-11-15T08:22:10;15.10;56.40
67050;DHT22;53955;52.442;13.284;2022-11-15T08:24:38;14.90;57.10
67050;DHT22;53955;52.442;13.284;2022-11-15T08:27:04;14.50;58.20
67050;DHT22;53955;52.442;13.284;2022-11-15T08:29:40;14.20;59.00
67050;DHT22;53955;52.442;13.284;2022-11-15T08:32:07;13.80;60.10
67050;DHT22;53955;52.442;13.284;2022-11-15T08:34:33;14.20;60.00
67050;DHT22;53955;52.442;13.284;2022-11-15T08:37:03;14.70;58.20
67050;DHT22;53955;52.442;13.284;2022-11-15T08:39:29;15.10;57.50
67050;DHT22;53955;52.442;13.284;2022-11-15T08:41:56;15.60;53.60
67050;DHT22;53955;52.442;13.284;2022-11-15T08:44:23;15.30;55.00
67050;DHT22;53955;52.442;13.284;2022-11-15T08:46:50;14.90;56.60
67050;DHT22;53955;52.442;13.284;2022-11-15T08:49:16;14.50;58.30
67050;DHT22;53955;52.442;13.284;2022-11-15T08:51:43;14.00;59.40
67050;DHT22;53955;52.442;13.284;2022-11-15T08:54:11;13.80;61.00
67050;DHT22;53955;52.442;13.284;2022-11-15T08:56:37;13.60;61.60
67050;DHT22;53955;52.442;13.284;2022-11-15T08:59:04;13.40;62.00
67050;DHT22;53955;52.442;13.284;2022-11-15T09:01:30;13.40;62.80
67050;DHT22;53955;52.442;13.284;2022-11-15T09:03:57;13.30;63.00
67050;DHT22;53955;52.442;13.284;2022-11-15T09:06:24;13.20;63.40
67050;DHT22;53955;52.442;13.284;2022-11-15T09:08:51;13.20;62.80
67050;DHT22;53955;52.442;13.284;2022-11-15T09:11:19;13.00;64.00
67050;DHT22;53955;52.442;13.284;2022-11-15T09:13:47;12.90;63.90
67050;DHT22;53955;52.442;13.284;2022-11-15T09:16:13;12.90;64.70
67050;DHT22;53955;52.442;13.284;2022-11-15T09:18:40;12.70;65.90
67050;DHT22;53955;52.442;13.284;2022-11-15T09:21:07;12.90;65.70
67050;DHT22;53955;52.442;13.284;2022-11-15T09:23:34;12.80;65.60
67050;DHT22;53955;52.442;13.284;2022-11-15T09:26:02;12.80;65.10
67050;DHT22;53955;52.442;13.284;2022-11-15T09:28:31;12.90;65.30
67050;DHT22;53955;52.442;13.284;2022-11-15T09:30:59;13.00;65.60
67050;DHT22;53955;52.442;13.284;2022-11-15T09:33:27;12.90;65.40
67050;DHT22;53955;52.442;13.284;2022-11-15T09:35:54;12.90;66.20
67050;DHT22;53955;52.442;13.284;2022-11-15T09:38:20;13.00;66.00
67050;DHT22;53955;52.442;13.284;2022-11-15T09:40:50;13.00;65.70
67050;DHT22;53955;52.442;13.284;2022-11-15T09:43:28;12.90;66.50
67050;DHT22;53955;52.442;13.284;2022-11-15T09:46:06;13.00;66.70
67050;DHT22;53955;52.442;13.284;2022-11-15T09:48:50;12.90;66.00
67050;DHT22;53955;52.442;13.284;2022-11-15T09:51:24;12.90;67.70
67050;DHT22;53955;52.442;13.284;2022-11-15T09:53:57;13.00;66.50
67050;DHT22;53955;52.442;13.284;2022-11-15T09:56:26;13.00;66.20
67050;DHT22;53955;52.442;13.284;2022-11-15T09:59:01;13.00;66.90
67050;DHT22;53955;52.442;13.284;2022-11-15T10:01:39;13.00;66.70
67050;DHT22;53955;52.442;13.284;2022-11-15T10:04:11;12.90;65.90
67050;DHT22;53955;52.442;13.284;2022-11-15T10:06:42;13.00;67.50
67050;DHT22;53955;52.442;13.284;2022-11-15T10:09:14;13.10;67.20
67050;DHT22;53955;52.442;13.284;2022-11-15T10:11:44;13.10;65.90
67050;DHT22;53955;52.442;13.284;2022-11-15T10:14:14;13.20;66.30
67050;DHT22;53955;52.442;13.284;2022-11-15T10:17:06;13.30;66.40
67050;DHT22;53955;52.442;13.284;2022-11-15T10:19:39;13.30;66.70
67050;DHT22;53955;52.442;13.284;2022-11-15T10:22:21;13.20;66.00
67050;DHT22;53955;52.442;13.284;2022-11-15T10:24:57;13.20;65.90
67050;DHT22;53955;52.442;13.284;2022-11-15T10:27:27;13.30;66.40
67050;DHT22;53955;52.442;13.284;2022-11-15T10:29:54;13.30;65.70
67050;DHT22;53955;52.442;13.284;2022-11-15T10:32:22;13.40;66.00
67050;DHT22;53955;52.442;13.284;2022-11-15T10:34:49;13.40;66.80
67050;DHT22;53955;52.442;13.284;2022-11-15T10:37:27;13.50;66.80
67050;DHT22;53955;52.442;13.284;2022-11-15T10:40:03;13.60;66.50
67050;DHT22;53955;52.442;13.284;2022-11-15T10:42:30;13.60;66.70
67050;DHT22;53955;52.442;13.284;2022-11-15T10:44:56;13.60;66.70
67050;DHT22;53955;52.442;13.284;2022-11-15T10:47:27;13.70;66.60
67050;DHT22;53955;52.442;13.284;2022-11-15T10:49:56;13.70;66.60
67050;DHT22;53955;52.442;13.284;2022-11-15T10:52:23;13.60;66.30
67050;DHT22;53955;52.442;13.284;2022-11-15T10:54:53;13.70;66.90
67050;DHT22;53955;52.442;13.284;2022-11-15T10:57:23;13.70;66.90
67050;DHT22;53955;52.442;13.284;2022-11-15T10:59:53;13.80;66.60
67050;DHT22;53955;52.442;13.284;2022-11-15T11:02:30;13.90;66.40
67050;DHT22;53955;52.442;13.284;2022-11-15T11:04:57;13.90;66.20
67050;DHT22;53955;52.442;13.284;2022-11-15T11:07:26;13.90;65.70
67050;DHT22;53955;52.442;13.284;2022-11-15T11:10:01;14.00;66.50
67050;DHT22;53955;52.442;13.284;2022-11-15T11:12:30;14.00;66.30
67050;DHT22;53955;52.442;13.284;2022-11-15T11:15:00;14.10;66.90
67050;DHT22;53955;52.442;13.284;2022-11-15T11:17:36;14.10;65.70
67050;DHT22;53955;52.442;13.284;2022-11-15T11:20:11;14.20;66.00
67050;DHT22;53955;52.442;13.284;2022-11-15T11:22:59;14.20;67.40
67050;DHT22;53955;52.442;13.284;2022-11-15T11:25:33;14.30;66.50
67050;DHT22;53955;52.442;13.284;2022-11-15T11:28:14;14.30;66.50
67050;DHT22;53955;52.442;13.284;2022-11-15T11:31:04;14.30;65.90
67050;DHT22;53955;52.442;13.284;2022-11-15T11:33:34;14.30;65.80
67050;DHT22;53955;52.442;13.284;2022-11-15T11:36:13;14.40;65.80
67050;DHT22;53955;52.442;13.284;2022-11-15T11:38:53;14.40;66.10
67050;DHT22;53955;52.442;13.284;2022-11-15T11:41:43;14.50;65.80
67050;DHT22;53955;52.442;13.284;2022-11-15T11:44:37;14.50;65.60
67050;DHT22;53955;52.442;13.284;2022-11-15T11:47:09;14.60;66.00
67050;DHT22;53955;52.442;13.284;2022-11-15T11:49:43;14.70;65.90
67050;DHT22;53955;52.442;13.284;2022-11-15T11:52:14;14.70;65.80
67050;DHT22;53955;52.442;13.284;2022-11-15T11:54:48;14.80;64.90
67050;DHT22;53955;52.442;13.284;2022-11-15T11:57:25;14.80;65.80
67050;DHT22;53955;52.442;13.284;2022-11-15T12:00:01;14.80;65.90
67050;DHT22;53955;52.442;13.284;2022-11-15T12:02:31;14.80;64.80
67050;DHT22;53955;52.442;13.284;2022-11-15T12:05:08;14.90;64.60
67050;DHT22;53955;52.442;13.284;2022-11-15T12:07:38;14.90;64.40
67050;DHT22;53955;52.442;13.284;2022-11-15T12:10:15;14.90;64.00
67050;DHT22;53955;52.442;13.284;2022-11-15T12:12:49;15.00;64.70
67050;DHT22;53955;52.442;13.284;2022-11-15T12:15:19;15.00;64.70
67050;DHT22;53955;52.442;13.284;2022-11-15T12:17:48;15.10;64.90
67050;DHT22;53955;52.442;13.284;2022-11-15T12:20:18;15.00;64.80
67050;DHT22;53955;52.442;13.284;2022-11-15T12:22:51;15.20;63.40
67050;DHT22;53955;52.442;13.284;2022-11-15T12:25:21;15.20;64.10
67050;DHT22;53955;52.442;13.284;2022-11-15T12:27:52;15.10;63.80
67050;DHT22;53955;52.442;13.284;2022-11-15T12:30:21;15.20;63.10
67050;DHT22;53955;52.442;13.284;2022-11-15T12:32:52;15.20;63.60
67050;DHT22;53955;52.442;13.284;2022-11-15T12:35:30;15.20;63.40
67050;DHT22;53955;52.442;13.284;2022-11-15T12:37:57;15.20;63.20
67050;DHT22;53955;52.442;13.284;2022-11-15T12:40:36;15.10;63.50
67050;DHT22;53955;52.442;13.284;2022-11-15T12:43:36;15.30;63.50
67050;DHT22;53955;52.442;13.284;2022-11-15T12:46:05;15.40;64.10
67050;DHT22;53955;52.442;13.284;2022-11-15T12:48:49;15.30;63.30
67050;DHT22;53955;52.442;13.284;2022-11-15T12:51:20;15.30;63.10
67050;DHT22;53955;52.442;13.284;2022-11-15T12:53:47;15.50;62.00
67050;DHT22;53955;52.442;13.284;2022-11-15T12:56:23;15.50;61.60
67050;DHT22;53955;52.442;13.284;2022-11-15T12:58:54;15.50;62.00
67050;DHT22;53955;52.442;13.284;2022-11-15T13:01:54;15.40;61.80
67050;DHT22;53955;52.442;13.284;2022-11-15T13:04:25;15.50;62.20
67050;DHT22;53955;52.442;13.284;2022-11-15T13:06:55;15.60;61.30
67050;DHT22;53955;52.442;13.284;2022-11-15T13:09:54;15.50;63.30
67050;DHT22;53955;52.442;13.284;2022-11-15T13:12:50;15.50;62.30
67050;DHT22;53955;52.442;13.284;2022-11-15T13:15:33;15.60;62.00
67050;DHT22;53955;52.442;13.284;2022-11-15T13:18:26;15.50;62.40
67050;DHT22;53955;52.442;13.284;2022-11-15T13:20:53;15.50;62.10
67050;DHT22;53955;52.442;13.284;2022-11-15T13:23:21;15.60;61.80
67050;DHT22;53955;52.442;13.284;2022-11-15T13:26:13;15.60;61.10
67050;DHT22;53955;52.442;13.284;2022-11-15T13:28:43;15.60;61.10
67050;DHT22;53955;52.442;13.284;2022-11-15T13:31:22;15.60;61.20
67050;DHT22;53955;52.442;13.284;2022-11-15T13:33:50;15.70;60.90
67050;DHT22;53955;52.442;13.284;2022-11-15T13:36:19;15.70;61.30
67050;DHT22;53955;52.442;13.284;2022-11-15T13:38:59;15.70;61.00
67050;DHT22;53955;52.442;13.284;2022-11-15T13:41:28;15.70;61.00
67050;DHT22;53955;52.442;13.284;2022-11-15T13:43:55;15.60;61.50
67050;DHT22;53955;52.442;13.284;2022-11-15T13:46:24;15.70;61.00
67050;DHT22;53955;52.442;13.284;2022-11-15T13:48:53;15.60;61.00
67050;DHT22;53955;52.442;13.284;2022-11-15T13:51:24;15.70;60.90
67050;DHT22;53955;52.442;13.284;2022-11-15T13:53:56;15.70;61.10
67050;DHT22;53955;52.442;13.284;2022-11-15T13:56:23;15.60;60.70
67050;DHT22;53955;52.442;13.284;2022-11-15T13:58:52;15.60;60.80
67050;DHT22;53955;52.442;13.284;2022-11-15T14:01:21;15.60;61.00
67050;DHT22;53955;52.442;13.284;2022-11-15T14:03:51;15.60;61.00
67050;DHT22;53955;52.442;13.284;2022-11-15T14:06:20;15.40;62.00
67050;DHT22;53955;52.442;13.284;2022-11-15T14:09:30;15.40;63.80
67050;DHT22;53955;52.442;13.284;2022-11-15T14:11:59;15.40;62.40
67050;DHT22;53955;52.442;13.284;2022-11-15T14:14:26;15.30;63.80
67050;DHT22;53955;52.442;13.284;2022-11-15T14:16:54;15.40;64.00
67050;DHT22;53955;52.442;13.284;2022-11-15T14:19:37;15.30;63.40
67050;DHT22;53955;52.442;13.284;2022-11-15T14:22:19;15.40;64.20
67050;DHT22;53955;52.442;13.284;2022-11-15T14:25:06;15.30;64.20
67050;DHT22;53955;52.442;13.284;2022-11-15T14:27:34;15.20;65.20
67050;DHT22;53955;52.442;13.284;2022-11-15T14:30:00;15.20;65.90
67050;DHT22;53955;52.442;13.284;2022-11-15T14:32:29;15.00;65.80
67050;DHT22;53955;52.442;13.284;2022-11-15T14:34:57;15.00;66.50
67050;DHT22;53955;52.442;13.284;2022-11-15T14:37:26;14.90;67.00
67050;DHT22;53955;52.442;13.284;2022-11-15T14:39:55;14.90;66.50
67050;DHT22;53955;52.442;13.284;2022-11-15T14:42:22;14.80;67.40
67050;DHT22;53955;52.442;13.284;2022-11-15T14:44:50;14.90;67.00
67050;DHT22;53955;52.442;13.284;2022-11-15T14:47:17;14.70;68.00
67050;DHT22;53955;52.442;13.284;2022-11-15T14:49:44;14.70;67.70
67050;DHT22;53955;52.442;13.284;2022-11-15T14:52:24;14.70;67.00
67050;DHT22;53955;52.442;13.284;2022-11-15T14:54:54;14.80;67.60
67050;DHT22;53955;52.442;13.284;2022-11-15T14:57:21;14.80;68.00
67050;DHT22;53955;52.442;13.284;2022-11-15T14:59:48;14.70;68.00
67050;DHT22;53955;52.442;13.284;2022-11-15T15:02:17;14.60;68.40
67050;DHT22;53955;52.442;13.284;2022-11-15T15:04:44;14.50;68.70
67050;DHT22;53955;52.442;13.284;2022-11-15T15:07:10;14.60;68.30
67050;DHT22;53955;52.442;13.284;2022-11-15T15:09:37;14.50;68.20
67050;DHT22;53955;52.442;13.284;2022-11-15T15:12:09;14.50;68.70
67050;DHT22;53955;52.442;13.284;2022-11-15T15:14:38;14.40;68.60
67050;DHT22;53955;52.442;13.284;2022-11-15T15:17:05;14.30;68.60
67050;DHT22;53955;52.442;13.284;2022-11-15T15:19:31;14.30;68.80
67050;DHT22;53955;52.442;13.284;2022-11-15T15:21:58;14.20;68.60
67050;DHT22;53955;52.442;13.284;2022-11-15T15:24:24;14.20;69.00
67050;DHT22;53955;52.442;13.284;2022-11-15T15:26:51;14.20;69.10
67050;DHT22;53955;52.442;13.284;2022-11-15T15:29:19;14.20;69.40
67050;DHT22;53955;52.442;13.284;2022-11-15T15:31:45;14.10;69.70
67050;DHT22;53955;52.442;13.284;2022-11-15T15:34:12;14.00;70.00
67050;DHT22;53955;52.442;13.284;2022-11-15T15:36:39;14.00;70.40
67050;DHT22;53955;52.442;13.284;2022-11-15T15:39:08;14.00;70.20
67050;DHT22;53955;52.442;13.284;2022-11-15T15:41:35;13.90;70.70
67050;DHT22;53955;52.442;13.284;2022-11-15T15:44:02;13.80;70.50